Time;durP1;ratioP1;P1;durP2;ratioP2;P2;SDS_P1;SDS_P2;PMS_P1;PMS_P2;Temp;Humidity;BMP_temperature;BMP_pressure;BME280_temperature;BME280_humidity;BME280_pressure;Samples;Min_cycle;Max_cycle;Signal;HPM_P1;HPM_P2
2022/08/27 00:01:59;;;;;;;5.35;1.00;;;17.60;80.00;;;;;;5054971;28;20029;-83
2022/08/27 00:04:25;;;;;;;6.03;1.05;;;17.60;80.10;;;;;;5055306;28;20039;-84
2022/08/27 00:06:51;;;;;;;5.90;1.13;;;17.60;80.20;;;;;;5038163;28;20044;-84
2022/08/27 00:09:17;;;;;;;4.00;1.20;;;17.60;80.40;;;;;;5038577;28;20108;-83
2022/08/27 00:11:43;;;;;;;4.93;1.23;;;17.50;80.30;;;;;;5038208;28;20524;-83
2022/08/27 00:14:09;;;;;;;3.83;0.90;;;17.50;80.50;;;;;;5038862;28;20099;-83
2022/08/27 00:16:35;;;;;;;2.70;1.10;;;17.50;80.60;;;;;;5054991;28;20469;-83
2022/08/27 00:19:00;;;;;;;4.50;1.25;;;17.50;80.60;;;;;;5056001;28;20053;-82
2022/08/27 00:21:26;;;;;;;6.10;1.10;;;17.50;80.70;;;;;;5038707;28;20037;-82
2022/08/27 00:23:52;;;;;;;5.25;1.00;;;17.50;80.70;;;;;;5054928;28;20025;-83
2022/08/27 00:26:17;;;;;;;5.85;1.50;;;17.50;80.80;;;;;;5055679;28;20021;-83
2022/08/27 00:28:46;;;;;;;4.43;1.02;;;17.40;80.90;;;;;;5054958;28;20030;-82
2022/08/27 00:31:12;;;;;;;3.05;0.82;;;17.40;80.90;;;;;;5056673;28;20071;-83
2022/08/27 00:33:37;;;;;;;4.45;1.38;;;17.40;81.00;;;;;;5041645;28;20029;-83
2022/08/27 00:36:04;;;;;;;6.05;1.23;;;17.40;81.70;;;;;;5055723;28;20033;-84
2022/08/27 00:38:30;;;;;;;4.93;1.33;;;17.40;81.10;;;;;;5055346;28;20112;-82
2022/08/27 00:40:55;;;;;;;3.55;1.38;;;17.40;81.20;;;;;;5054719;28;20120;-83
2022/08/27 00:43:32;;;;;;;8.00;1.35;;;17.40;81.40;;;;;;5054632;28;20029;-83
2022/08/27 00:46:06;;;;;;;4.30;1.15;;;17.40;81.60;;;;;;5056062;28;20060;-83
2022/08/27 00:48:34;;;;;;;3.50;1.13;;;17.40;81.70;;;;;;5054662;28;20106;-84
2022/08/27 00:51:01;;;;;;;5.43;1.20;;;17.40;81.70;;;;;;5037622;28;20037;-83
2022/08/27 00:53:32;;;;;;;3.53;0.70;;;17.40;81.60;;;;;;5038326;28;20033;-83
2022/08/27 00:56:26;;;;;;;7.38;0.90;;;17.40;81.70;;;;;;5054313;28;20025;-83
2022/08/27 00:58:53;;;;;;;5.50;0.98;;;17.40;81.80;;;;;;5068745;28;20107;-83
2022/08/27 01:01:23;;;;;;;9.70;1.90;;;17.40;81.80;;;;;;5070894;28;20021;-83
2022/08/27 01:03:54;;;;;;;4.90;1.02;;;17.30;81.80;;;;;;5053182;28;20017;-83
2022/08/27 01:06:22;;;;;;;3.40;0.98;;;17.40;81.80;;;;;;5053978;28;20052;-83
2022/08/27 01:08:54;;;;;;;3.35;0.90;;;17.40;81.90;;;;;;5055256;28;20070;-83
2022/08/27 01:11:20;;;;;;;4.13;1.10;;;17.40;81.70;;;;;;5054550;28;20025;-83
2022/08/27 01:13:46;;;;;;;3.45;0.80;;;17.40;81.70;;;;;;5054519;28;20055;-83
2022/08/27 01:16:19;;;;;;;6.88;1.48;;;17.40;81.70;;;;;;5054212;28;20477;-83
2022/08/27 01:18:45;;;;;;;4.85;1.20;;;17.40;81.70;;;;;;5053879;28;20024;-83
2022/08/27 01:21:22;;;;;;;3.85;1.00;;;17.40;81.60;;;;;;5053518;28;20033;-83
2022/08/27 01:24:05;;;;;;;4.15;1.15;;;17.40;81.60;;;;;;5055466;28;20025;-82
2022/08/27 01:26:31;;;;;;;3.05;0.98;;;17.40;81.60;;;;;;5055302;28;20079;-83
2022/08/27 01:28:57;;;;;;;4.30;1.23;;;17.40;81.60;;;;;;5053611;28;20495;-83
2022/08/27 01:31:23;;;;;;;3.70;1.13;;;17.40;81.60;;;;;;5054916;28;20469;-83
2022/08/27 01:34:04;;;;;;;4.50;1.20;;;17.40;81.60;;;;;;5053566;28;20036;-83
2022/08/27 01:36:30;;;;;;;5.05;1.38;;;17.40;81.70;;;;;;5053682;28;20029;-84
2022/08/27 01:38:56;;;;;;;5.88;1.30;;;17.30;81.60;;;;;;5053420;28;20111;-83
2022/08/27 01:41:23;;;;;;;4.22;1.00;;;17.40;81.70;;;;;;5053366;28;20132;-82
2022/08/27 01:43:49;;;;;;;5.93;1.02;;;17.40;81.70;;;;;;5036701;28;20029;-82
2022/08/27 01:46:19;;;;;;;6.05;1.10;;;17.30;81.70;;;;;;5053133;28;20119;-83
2022/08/27 01:48:45;;;;;;;6.05;1.25;;;17.30;81.70;;;;;;5053536;28;20021;-82
2022/08/27 01:51:11;;;;;;;7.60;1.50;;;17.30;81.70;;;;;;5036516;28;20036;-82
2022/08/27 01:53:36;;;;;;;4.35;1.10;;;17.30;81.90;;;;;;5052896;28;20028;-82
2022/08/27 01:56:03;;;;;;;5.25;1.08;;;17.30;82.50;;;;;;5036300;28;20377;-82
2022/08/27 01:58:30;;;;;;;4.70;1.23;;;17.30;81.90;;;;;;5053086;28;20053;-82
2022/08/27 02:00:59;;;;;;;4.03;0.98;;;17.30;82.00;;;;;;5036533;28;20037;-82
2022/08/27 02:03:25;;;;;;;8.48;1.23;;;17.30;82.10;;;;;;5052873;28;20048;-82
2022/08/27 02:05:51;;;;;;;5.28;1.20;;;17.30;82.30;;;;;;5052931;28;20059;-83
2022/08/27 02:08:18;;;;;;;5.90;1.35;;;17.30;82.30;;;;;;5054395;28;20087;-82
2022/08/27 02:10:45;;;;;;;4.72;1.00;;;17.30;82.50;;;;;;5036222;28;20036;-82
2022/08/27 02:13:12;;;;;;;4.43;1.17;;;17.30;82.40;;;;;;5054390;28;20358;-84
2022/08/27 02:15:38;;;;;;;6.07;1.33;;;17.30;82.50;;;;;;5053205;28;20033;-82
2022/08/27 02:18:06;;;;;;;9.27;1.45;;;17.30;82.40;;;;;;5035995;28;20036;-83
2022/08/27 02:20:32;;;;;;;5.35;1.55;;;17.30;82.40;;;;;;5053202;28;20028;-82
2022/08/27 02:22:58;;;;;;;5.53;1.33;;;17.30;82.60;;;;;;5052603;28;20021;-82
2022/08/27 02:25:26;;;;;;;5.65;1.30;;;17.30;82.50;;;;;;5053766;28;20068;-83
2022/08/27 02:27:52;;;;;;;8.82;1.40;;;17.20;82.40;;;;;;5035934;28;20036;-83
2022/08/27 02:30:20;;;;;;;4.65;1.27;;;17.30;82.50;;;;;;5036094;28;20025;-83
2022/08/27 02:32:46;;;;;;;4.10;1.10;;;17.30;82.50;;;;;;5052556;28;20111;-83
2022/08/27 02:35:17;;;;;;;3.47;0.98;;;17.30;82.40;;;;;;5052382;28;20430;-84
2022/08/27 02:37:44;;;;;;;4.68;1.20;;;17.30;82.40;;;;;;5068884;28;20036;-83
2022/08/27 02:40:15;;;;;;;5.10;1.30;;;17.30;82.40;;;;;;5053789;28;20040;-85
2022/08/27 02:42:41;;;;;;;5.20;1.23;;;17.30;82.30;;;;;;5053178;28;20473;-82
2022/08/27 02:45:07;;;;;;;4.40;1.00;;;17.30;82.30;;;;;;5052518;28;20096;-82
2022/08/27 02:47:34;;;;;;;6.05;1.38;;;17.30;83.00;;;;;;5052099;28;20045;-82
2022/08/27 02:50:00;;;;;;;5.28;1.40;;;17.30;82.30;;;;;;5053605;28;20041;-82
2022/08/27 02:52:28;;;;;;;5.13;1.55;;;17.30;82.30;;;;;;5035626;28;20040;-82
2022/08/27 02:54:54;;;;;;;4.93;1.10;;;17.30;82.30;;;;;;5052962;28;20013;-82
2022/08/27 02:57:20;;;;;;;4.95;1.55;;;17.20;82.30;;;;;;5052236;28;20029;-83
2022/08/27 02:59:46;;;;;;;3.13;1.05;;;17.20;82.30;;;;;;5035012;28;20061;-82
2022/08/27 03:02:12;;;;;;;4.57;1.35;;;17.30;82.30;;;;;;5035494;28;20037;-82
2022/08/27 03:04:37;;;;;;;5.07;1.35;;;17.30;82.40;;;;;;5052221;28;20523;-82
2022/08/27 03:07:03;;;;;;;6.00;1.17;;;17.30;82.40;;;;;;5052273;28;20559;-83
2022/08/27 03:09:29;;;;;;;6.25;1.63;;;17.30;82.30;;;;;;5052095;28;20499;-82
2022/08/27 03:11:55;;;;;;;3.03;1.13;;;17.20;82.20;;;;;;5035447;28;20039;-80
2022/08/27 03:14:21;;;;;;;5.85;1.20;;;17.20;82.20;;;;;;5035703;28;20021;-82
2022/08/27 03:16:46;;;;;;;7.97;1.35;;;17.20;82.30;;;;;;5035464;28;20030;-81
2022/08/27 03:19:12;;;;;;;2.95;1.00;;;17.20;82.40;;;;;;5035776;28;20032;-82
2022/08/27 03:21:38;;;;;;;4.68;1.20;;;17.20;82.50;;;;;;5052170;28;20033;-82
2022/08/27 03:24:04;;;;;;;3.50;1.20;;;17.20;82.60;;;;;;5051481;28;20033;-82
2022/08/27 03:26:33;;;;;;;3.95;1.38;;;17.20;82.60;;;;;;5051629;28;20040;-84
2022/08/27 03:28:59;;;;;;;4.47;1.08;;;17.20;82.60;;;;;;5072253;28;20025;-83
2022/08/27 03:31:26;;;;;;;6.78;1.17;;;17.20;82.60;;;;;;5057472;28;20407;-83
2022/08/27 03:33:58;;;;;;;5.35;1.05;;;17.20;82.70;;;;;;5057126;28;20032;-83
2022/08/27 03:36:25;;;;;;;5.82;1.83;;;17.20;82.80;;;;;;5056085;28;20342;-82
2022/08/27 03:38:51;;;;;;;5.57;1.05;;;17.20;82.80;;;;;;5055736;28;20530;-83
2022/08/27 03:41:18;;;;;;;4.80;1.42;;;17.20;82.80;;;;;;5056038;28;20057;-82
2022/08/27 03:43:44;;;;;;;4.55;1.30;;;17.20;82.80;;;;;;5055982;28;20025;-82
2022/08/27 03:46:09;;;;;;;4.85;1.45;;;17.20;82.60;;;;;;5056939;28;20094;-82
2022/08/27 03:48:36;;;;;;;6.30;1.02;;;17.20;82.50;;;;;;5055428;28;20489;-83
2022/08/27 03:51:13;;;;;;;6.95;1.60;;;17.20;82.30;;;;;;5056877;28;20104;-82
2022/08/27 03:53:42;;;;;;;5.32;1.15;;;17.20;82.30;;;;;;5055700;28;20041;-82
2022/08/27 03:56:08;;;;;;;6.97;1.58;;;17.20;82.30;;;;;;5056355;28;20096;-83
2022/08/27 03:58:35;;;;;;;6.03;1.45;;;17.10;82.30;;;;;;5055598;28;20053;-82
2022/08/27 04:01:02;;;;;;;4.18;1.20;;;17.10;82.30;;;;;;5055434;28;20384;-82
2022/08/27 04:03:27;;;;;;;5.10;1.40;;;17.10;82.30;;;;;;5055125;28;20060;-82
2022/08/27 04:05:54;;;;;;;5.88;1.30;;;17.10;82.30;;;;;;5038281;28;20059;-82
2022/08/27 04:08:21;;;;;;;7.30;1.30;;;17.10;82.30;;;;;;5055280;28;20045;-82
2022/08/27 04:10:48;;;;;;;3.35;1.15;;;17.10;82.50;;;;;;5056551;28;20025;-82
2022/08/27 04:13:14;;;;;;;4.65;1.63;;;17.00;82.50;;;;;;5054636;28;20480;-82
2022/08/27 04:15:45;;;;;;;5.63;1.42;;;17.00;82.60;;;;;;5038176;28;20029;-82
2022/08/27 04:18:13;;;;;;;4.78;1.35;;;17.00;82.70;;;;;;5054795;28;20071;-82
2022/08/27 04:20:38;;;;;;;3.85;1.48;;;17.00;82.80;;;;;;5055860;28;20037;-84
2022/08/27 04:23:05;;;;;;;4.35;1.15;;;17.00;82.90;;;;;;5054597;28;20029;-81
2022/08/27 04:25:31;;;;;;;4.72;1.38;;;17.00;82.90;;;;;;5056148;28;20033;-81
2022/08/27 04:27:57;;;;;;;4.63;1.52;;;17.00;82.90;;;;;;5037806;28;20049;-82
2022/08/27 04:30:22;;;;;;;5.40;1.55;;;16.90;82.80;;;;;;5071484;28;20028;-82
2022/08/27 04:32:49;;;;;;;4.18;1.20;;;16.90;82.90;;;;;;5055695;28;20029;-82
2022/08/27 04:35:15;;;;;;;6.10;1.65;;;16.90;83.00;;;;;;5054423;28;20119;-82
2022/08/27 04:37:41;;;;;;;4.47;1.75;;;16.80;83.10;;;;;;5037992;28;20504;-82
2022/08/27 04:40:08;;;;;;;7.00;2.08;;;16.80;83.10;;;;;;5036658;28;20064;-82
2022/08/27 04:42:33;;;;;;;3.70;1.50;;;16.70;83.10;;;;;;5070633;28;20032;-83
2022/08/27 04:44:59;;;;;;;5.05;1.15;;;16.70;83.20;;;;;;5082254;28;20032;-82
2022/08/27 04:47:25;;;;;;;4.47;1.48;;;16.60;83.20;;;;;;5061117;28;20040;-83
2022/08/27 04:49:50;;;;;;;5.15;1.50;;;16.60;83.30;;;;;;5057374;28;20060;-82
2022/08/27 04:52:16;;;;;;;4.40;1.25;;;16.50;83.40;;;;;;5073595;28;20032;-82
2022/08/27 04:54:42;;;;;;;6.00;1.40;;;16.50;83.50;;;;;;5042269;28;20503;-82
2022/08/27 04:57:07;;;;;;;4.38;1.48;;;16.50;83.70;;;;;;5052099;28;20052;-83
2022/08/27 04:59:34;;;;;;;5.78;2.25;;;16.50;83.90;;;;;;5067914;28;20535;-81
2022/08/27 05:02:01;;;;;;;4.13;1.45;;;16.40;84.00;;;;;;5067175;28;20067;-83
2022/08/27 05:04:28;;;;;;;6.93;1.73;;;16.30;84.10;;;;;;5071277;28;20086;-83
2022/08/27 05:06:54;;;;;;;8.90;1.75;;;16.30;84.30;;;;;;5073251;28;20037;-86
2022/08/27 05:09:20;;;;;;;6.18;1.83;;;16.30;84.50;;;;;;5072944;28;20135;-83
2022/08/27 05:11:46;;;;;;;4.40;1.75;;;16.20;84.60;;;;;;5072255;28;20104;-82
2022/08/27 05:14:14;;;;;;;4.40;1.67;;;16.10;84.70;;;;;;5070417;28;20025;-82
2022/08/27 05:16:39;;;;;;;8.18;1.70;;;16.10;84.90;;;;;;5072639;28;20032;-82
2022/08/27 05:19:13;;;;;;;4.82;1.92;;;16.10;85.10;;;;;;5072386;28;20396;-81
2022/08/27 05:21:45;;;;;;;3.80;1.50;;;16.00;85.20;;;;;;5072993;28;20060;-81
2022/08/27 05:24:11;;;;;;;4.95;1.70;;;16.00;85.30;;;;;;5073662;28;20045;-81
2022/08/27 05:26:37;;;;;;;5.10;1.50;;;16.00;85.30;;;;;;5055677;28;20035;-82
2022/08/27 05:29:04;;;;;;;6.47;1.73;;;16.00;85.40;;;;;;5056754;28;20120;-84
2022/08/27 05:31:30;;;;;;;5.82;1.98;;;16.00;85.40;;;;;;5057210;28;20071;-82
2022/08/27 05:33:56;;;;;;;7.25;2.03;;;16.00;85.50;;;;;;5056827;28;20028;-83
2022/08/27 05:36:25;;;;;;;4.63;1.55;;;16.00;85.60;;;;;;5056750;28;20082;-82
2022/08/27 05:38:52;;;;;;;6.32;1.75;;;16.00;85.60;;;;;;5073172;28;20062;-82
2022/08/27 05:41:20;;;;;;;6.30;2.10;;;16.00;85.60;;;;;;5073507;28;20091;-81
2022/08/27 05:43:47;;;;;;;6.15;1.60;;;16.00;85.70;;;;;;5073363;28;20085;-81
2022/08/27 05:46:15;;;;;;;8.85;2.00;;;16.10;85.70;;;;;;5057373;28;20020;-82
2022/08/27 05:48:42;;;;;;;5.28;1.75;;;16.10;85.80;;;;;;5074427;28;20170;-81
2022/08/27 05:51:11;;;;;;;6.13;1.98;;;16.10;85.80;;;;;;5073308;28;20032;-81
2022/08/27 05:53:37;;;;;;;7.20;2.13;;;16.20;85.90;;;;;;5077818;28;20051;-81
2022/08/27 05:56:03;;;;;;;5.30;1.92;;;16.20;86.00;;;;;;5061224;28;20039;-81
2022/08/27 06:01:13;;;;;;;;;;;16.30;86.30;;;;;;5076844;28;20078;-81
2022/08/27 06:03:40;;;;;;;6.47;1.83;;;16.20;86.20;;;;;;5075728;28;19909;-81
2022/08/27 06:06:09;;;;;;;8.15;2.58;;;16.30;86.10;;;;;;5075356;28;20111;-82
2022/08/27 06:08:36;;;;;;;5.50;1.80;;;16.30;86.00;;;;;;5075509;28;20043;-81
2022/08/27 06:11:04;;;;;;;5.00;1.80;;;16.40;86.00;;;;;;5075627;28;20049;-81
2022/08/27 06:13:32;;;;;;;5.57;2.08;;;16.40;86.10;;;;;;5075687;28;20101;-83
2022/08/27 06:16:07;;;;;;;6.30;1.58;;;16.40;86.20;;;;;;5073562;28;20032;-81
2022/08/27 06:18:34;;;;;;;5.15;1.60;;;16.50;86.20;;;;;;5057260;28;20032;-82
2022/08/27 06:20:59;;;;;;;6.38;1.73;;;16.60;86.20;;;;;;5074113;28;20028;-81
2022/08/27 06:23:26;;;;;;;5.80;1.95;;;16.60;86.20;;;;;;5055898;28;20218;-81
2022/08/27 06:25:52;;;;;;;4.15;1.45;;;16.60;86.20;;;;;;5073809;28;20021;-81
2022/08/27 06:28:23;;;;;;;4.95;1.63;;;16.70;86.10;;;;;;5072732;28;20043;-81
2022/08/27 06:30:49;;;;;;;8.50;2.20;;;16.70;86.00;;;;;;5072755;28;20027;-81
2022/08/27 06:33:15;;;;;;;5.13;1.50;;;16.80;85.90;;;;;;5072547;28;20037;-81
2022/08/27 06:35:41;;;;;;;4.93;1.77;;;16.80;85.70;;;;;;5072237;28;20082;-82
2022/08/27 06:38:07;;;;;;;4.10;1.40;;;16.90;85.60;;;;;;5072168;28;20478;-81
2022/08/27 06:40:33;;;;;;;6.97;1.58;;;16.90;85.40;;;;;;5055557;28;20059;-82
2022/08/27 06:42:59;;;;;;;5.55;1.40;;;17.00;85.20;;;;;;5055786;28;20024;-81
2022/08/27 06:45:25;;;;;;;7.95;1.95;;;17.00;85.00;;;;;;5055492;28;20119;-82
2022/08/27 06:47:50;;;;;;;4.20;1.48;;;17.10;84.80;;;;;;5055383;28;20445;-81
2022/08/27 06:50:17;;;;;;;5.93;1.27;;;17.10;84.50;;;;;;5055187;28;20128;-82
2022/08/27 06:52:42;;;;;;;4.30;1.00;;;17.10;84.20;;;;;;5072756;28;20028;-82
2022/08/27 06:55:10;;;;;;;4.35;1.50;;;17.20;84.10;;;;;;5055044;28;20389;-83
2022/08/27 06:57:36;;;;;;;4.57;1.20;;;17.20;83.80;;;;;;5072117;28;20029;-81
2022/08/27 07:00:03;;;;;;;3.88;1.10;;;17.20;83.60;;;;;;5055392;28;20135;-82
2022/08/27 07:02:29;;;;;;;3.75;1.05;;;17.30;83.60;;;;;;5072319;28;20039;-81
2022/08/27 07:04:54;;;;;;;2.95;1.08;;;17.30;83.30;;;;;;5073411;28;20112;-82
2022/08/27 07:07:20;;;;;;;3.75;0.98;;;17.40;83.00;;;;;;5055306;28;20041;-82
2022/08/27 07:09:46;;;;;;;3.03;0.80;;;17.40;82.60;;;;;;5055390;28;20112;-81
2022/08/27 07:12:11;;;;;;;5.82;1.35;;;17.40;82.50;;;;;;5071870;28;20387;-82
2022/08/27 07:14:37;;;;;;;4.13;1.10;;;17.50;82.30;;;;;;5055430;28;20115;-82
2022/08/27 07:17:03;;;;;;;5.40;1.02;;;17.50;82.10;;;;;;5051181;28;20037;-81
2022/08/27 07:19:31;;;;;;;3.95;1.10;;;17.60;82.10;;;;;;5035046;28;20115;-82
2022/08/27 07:21:57;;;;;;;3.08;0.80;;;17.60;82.00;;;;;;5035582;28;20389;-82
2022/08/27 07:24:23;;;;;;;5.60;1.25;;;17.70;82.10;;;;;;5035746;28;20370;-82
2022/08/27 07:26:49;;;;;;;4.63;1.10;;;17.70;81.80;;;;;;5051366;28;20056;-82
2022/08/27 07:29:15;;;;;;;3.38;0.85;;;17.80;81.70;;;;;;5034965;28;20021;-82
2022/08/27 07:31:40;;;;;;;4.38;1.15;;;17.80;81.50;;;;;;5051555;28;20028;-82
2022/08/27 07:34:07;;;;;;;3.58;0.90;;;17.80;81.20;;;;;;5034634;28;20116;-84
2022/08/27 07:36:36;;;;;;;2.90;0.80;;;17.90;81.10;;;;;;5035359;28;20025;-82
2022/08/27 07:39:01;;;;;;;3.70;0.90;;;17.90;80.90;;;;;;5052670;28;20029;-81
2022/08/27 07:41:28;;;;;;;3.58;0.90;;;18.00;80.60;;;;;;5051521;28;20061;-81
2022/08/27 07:46:37;;;;;;;4.97;0.80;;;18.10;80.30;;;;;;5051538;28;20114;-82
2022/08/27 07:49:03;;;;;;;3.22;0.63;;;18.20;80.00;;;;;;5035036;28;20025;-82
2022/08/27 07:51:35;;;;;;;2.80;0.60;;;18.20;79.80;;;;;;5034695;28;20033;-82
2022/08/27 07:54:01;;;;;;;3.95;0.80;;;18.30;79.70;;;;;;5035936;28;20072;-82
2022/08/27 07:56:28;;;;;;;3.13;0.60;;;18.40;80.10;;;;;;5050901;28;20458;-82
2022/08/27 07:58:53;;;;;;;3.53;0.60;;;18.40;79.20;;;;;;5051135;28;20053;-82
2022/08/27 08:01:19;;;;;;;4.30;0.93;;;18.40;79.00;;;;;;5034514;28;20447;-82
2022/08/27 08:03:45;;;;;;;3.50;0.70;;;18.50;78.60;;;;;;5051400;28;20029;-82
2022/08/27 08:06:14;;;;;;;2.70;0.65;;;18.60;78.30;;;;;;5035078;28;20702;-82
2022/08/27 08:08:40;;;;;;;3.65;0.98;;;18.70;78.40;;;;;;5053012;28;20049;-82
2022/08/27 08:11:11;;;;;;;4.63;0.77;;;18.80;77.80;;;;;;5051210;28;20489;-81
2022/08/27 08:13:37;;;;;;;2.03;0.40;;;18.90;77.90;;;;;;5052149;28;20021;-81
2022/08/27 08:16:03;;;;;;;2.30;0.82;;;19.10;77.70;;;;;;5038324;28;20033;-81
2022/08/27 08:18:29;;;;;;;2.90;0.40;;;19.30;77.30;;;;;;5038373;28;20025;-84
2022/08/27 08:21:09;;;;;;;1.67;0.60;;;19.40;76.40;;;;;;5055030;28;20031;-82
2022/08/27 08:23:35;;;;;;;6.22;0.85;;;19.50;75.80;;;;;;5055949;28;20053;-82
2022/08/27 08:26:00;;;;;;;2.90;0.60;;;19.70;75.50;;;;;;5054755;28;20543;-82
2022/08/27 08:28:27;;;;;;;3.45;0.70;;;19.70;75.10;;;;;;5056002;28;20405;-82
2022/08/27 08:30:53;;;;;;;3.80;0.60;;;19.80;74.80;;;;;;5056267;28;20024;-81
2022/08/27 08:33:20;;;;;;;2.92;0.57;;;19.90;74.40;;;;;;5054531;28;20025;-82
2022/08/27 08:35:47;;;;;;;2.35;0.70;;;20.00;74.40;;;;;;5054451;28;20029;-81
2022/08/27 08:38:14;;;;;;;4.28;0.60;;;20.10;74.20;;;;;;5038370;28;20033;-81
2022/08/27 08:40:44;;;;;;;2.33;0.68;;;20.20;73.40;;;;;;5071108;28;20431;-81
2022/08/27 08:43:32;;;;;;;4.97;0.90;;;20.20;73.30;;;;;;5055249;28;20116;-82
2022/08/27 08:46:07;;;;;;;3.67;0.70;;;20.30;73.10;;;;;;5054821;28;20040;-81
2022/08/27 08:48:34;;;;;;;2.05;0.52;;;20.40;72.60;;;;;;5054043;28;20029;-79
2022/08/27 08:51:21;;;;;;;2.13;0.60;;;20.40;72.10;;;;;;5037606;28;20057;-82
2022/08/27 08:53:59;;;;;;;3.78;0.60;;;20.40;71.40;;;;;;5053968;28;20025;-83
2022/08/27 08:56:35;;;;;;;3.42;0.50;;;20.50;70.90;;;;;;5055060;28;20107;-82
2022/08/27 08:59:13;;;;;;;4.55;0.50;;;20.50;70.80;;;;;;5055218;28;20052;-81
2022/08/27 09:01:39;;;;;;;4.80;0.52;;;20.70;70.50;;;;;;5053924;28;20017;-82
2022/08/27 09:04:09;;;;;;;4.65;0.52;;;20.70;70.10;;;;;;5037756;28;20032;-83
2022/08/27 09:07:07;;;;;;;2.83;0.50;;;20.80;70.00;;;;;;5055140;28;20032;-83
2022/08/27 09:09:39;;;;;;;3.80;0.65;;;20.80;69.60;;;;;;5053879;28;20021;-83
2022/08/27 09:12:23;;;;;;;8.82;0.60;;;20.90;69.30;;;;;;5054136;28;20025;-82
2022/08/27 09:15:06;;;;;;;4.53;0.50;;;21.00;69.00;;;;;;5053852;28;20021;-83
2022/08/27 09:17:33;;;;;;;2.65;0.47;;;21.10;68.70;;;;;;5061230;28;20060;-81
2022/08/27 09:19:59;;;;;;;4.50;0.52;;;21.10;67.70;;;;;;5041939;28;20472;-82
2022/08/27 09:22:44;;;;;;;2.20;0.52;;;21.30;67.20;;;;;;5086775;28;20504;-82
2022/08/27 09:25:19;;;;;;;2.42;0.40;;;21.40;67.00;;;;;;5052596;28;20029;-81
2022/08/27 09:27:46;;;;;;;1.58;0.43;;;21.50;67.10;;;;;;5053439;28;20044;-82
2022/08/27 09:30:24;;;;;;;2.28;0.50;;;21.60;66.50;;;;;;5054554;28;20422;-81
2022/08/27 09:32:56;;;;;;;7.50;0.57;;;21.70;66.10;;;;;;5054310;28;20393;-82
2022/08/27 09:35:25;;;;;;;2.55;0.47;;;21.80;65.70;;;;;;5053432;28;20063;-82
2022/08/27 09:37:54;;;;;;;2.40;0.80;;;21.90;65.10;;;;;;5053140;28;20021;-81
2022/08/27 09:40:41;;;;;;;2.38;0.60;;;21.90;64.80;;;;;;5053111;28;20028;-81
2022/08/27 09:43:23;;;;;;;1.08;0.30;;;22.00;64.60;;;;;;5054882;28;20025;-82
2022/08/27 09:45:54;;;;;;;4.07;0.50;;;22.20;64.80;;;;;;5052973;28;20031;-82
2022/08/27 09:48:24;;;;;;;1.92;0.50;;;22.40;64.80;;;;;;5053874;28;20044;-82
2022/08/27 09:50:57;;;;;;;3.38;0.47;;;22.60;64.40;;;;;;5052979;28;20070;-82
2022/08/27 09:53:31;;;;;;;2.90;0.70;;;22.80;64.00;;;;;;5053070;28;20048;-80
2022/08/27 09:56:03;;;;;;;3.75;0.60;;;22.90;63.60;;;;;;5052490;28;20021;-82
2022/08/27 09:58:48;;;;;;;1.60;0.50;;;22.90;62.70;;;;;;5053837;28;20053;-81
2022/08/27 10:01:24;;;;;;;3.40;0.60;;;22.80;62.30;;;;;;5052721;28;20017;-81
2022/08/27 10:03:49;;;;;;;4.05;0.60;;;22.70;62.10;;;;;;5053307;28;20078;-81
2022/08/27 10:06:29;;;;;;;3.50;0.47;;;22.70;62.30;;;;;;5052262;28;20108;-81
2022/08/27 10:09:15;;;;;;;2.70;0.50;;;22.70;62.20;;;;;;5052376;28;20120;-81
2022/08/27 10:11:51;;;;;;;3.88;0.60;;;22.70;62.00;;;;;;5053945;28;20032;-81
2022/08/27 10:14:25;;;;;;;2.63;0.47;;;22.70;61.80;;;;;;5052783;28;20382;-82
2022/08/27 10:17:10;;;;;;;4.70;0.88;;;22.80;62.00;;;;;;5052272;28;20381;-81
2022/08/27 10:19:42;;;;;;;4.88;1.00;;;22.80;61.60;;;;;;5053572;28;20067;-81
2022/08/27 10:22:26;;;;;;;3.25;0.60;;;22.90;62.20;;;;;;5052680;28;20051;-82
2022/08/27 10:25:13;;;;;;;5.25;1.10;;;23.10;61.50;;;;;;5052950;28;20024;-81
2022/08/27 10:28:06;;;;;;;1.73;0.50;;;23.20;61.20;;;;;;5053626;28;20087;-87
2022/08/27 10:31:05;;;;;;;3.60;0.65;;;23.40;61.00;;;;;;5053613;28;20035;-87
2022/08/27 10:33:50;;;;;;;3.20;0.80;;;23.60;60.70;;;;;;5053413;28;20036;-88
2022/08/27 10:36:22;;;;;;;5.60;0.73;;;23.70;60.60;;;;;;5049047;28;20033;-89
2022/08/27 10:39:13;;;;;;;3.28;0.73;;;23.90;59.90;;;;;;5052796;28;20021;-87
2022/08/27 10:41:57;;;;;;;6.18;0.77;;;24.00;59.40;;;;;;5053296;28;20477;-88
2022/08/27 10:44:32;;;;;;;8.35;0.95;;;24.00;59.30;;;;;;5054361;28;20064;-88
2022/08/27 10:47:09;;;;;;;3.70;0.88;;;24.10;59.10;;;;;;5053452;28;20045;-88
2022/08/27 10:49:52;;;;;;;4.35;0.60;;;24.10;59.20;;;;;;5054659;28;20013;-88
2022/08/27 10:52:27;;;;;;;3.22;1.02;;;24.20;59.20;;;;;;5053538;28;20607;-87
2022/08/27 10:55:20;;;;;;;3.00;0.50;;;24.50;59.40;;;;;;5054406;28;20036;-86
2022/08/27 10:58:17;;;;;;;3.25;0.60;;;25.00;59.30;;;;;;5055098;28;20021;-87
2022/08/27 11:01:01;;;;;;;4.78;0.75;;;25.30;58.00;;;;;;5055705;28;20473;-87
2022/08/27 11:03:30;;;;;;;1.98;0.50;;;25.50;57.50;;;;;;5055792;28;20095;-86
2022/08/27 11:06:01;;;;;;;3.20;0.60;;;25.40;56.80;;;;;;5055057;28;20469;-88
2022/08/27 11:08:51;;;;;;;3.25;0.68;;;25.40;56.20;;;;;;5053086;28;20075;-86
2022/08/27 11:11:52;;;;;;;3.15;1.30;;;25.20;56.00;;;;;;5053570;28;20496;-88
2022/08/27 11:14:46;;;;;;;4.90;0.38;;;25.10;55.90;;;;;;5052900;28;20140;-88
2022/08/27 11:17:23;;;;;;;2.38;0.50;;;25.00;56.10;;;;;;5053373;28;20396;-89
2022/08/27 11:20:10;;;;;;;2.53;0.40;;;24.90;56.10;;;;;;5054156;28;20040;-88
2022/08/27 11:22:47;;;;;;;5.50;0.60;;;24.80;56.30;;;;;;5054559;28;20029;-87
2022/08/27 11:25:26;;;;;;;5.15;0.50;;;24.70;56.40;;;;;;5052401;28;20025;-86
2022/08/27 11:27:54;;;;;;;3.13;0.60;;;24.70;56.50;;;;;;5052474;28;20037;-89
2022/08/27 11:30:46;;;;;;;4.30;0.60;;;24.70;56.40;;;;;;5052520;28;20025;-87
2022/08/27 11:33:12;;;;;;;4.43;0.65;;;24.80;55.90;;;;;;5044166;28;20459;-86
2022/08/27 11:36:16;;;;;;;3.70;0.60;;;24.80;56.00;;;;;;5053616;28;20068;-87
2022/08/27 11:38:53;;;;;;;;;;;24.80;55.60;;;;;;5053706;28;20595;-88
2022/08/27 11:41:56;;;;;;;4.78;0.60;;;24.90;55.60;;;;;;5052157;28;19905;-88
2022/08/27 11:44:25;;;;;;;2.88;0.65;;;25.00;55.40;;;;;;5034506;28;20513;-88
2022/08/27 11:47:06;;;;;;;3.40;0.50;;;25.20;55.60;;;;;;5048643;28;20378;-88
2022/08/27 11:49:59;;;;;;;2.42;0.60;;;25.70;55.40;;;;;;5056234;28;20108;-88
2022/08/27 11:52:27;;;;;;;4.17;0.83;;;26.00;54.60;;;;;;5056566;28;20029;-88
2022/08/27 11:55:11;;;;;;;4.25;0.70;;;26.10;54.60;;;;;;5057984;28;20079;-90
2022/08/27 11:57:37;;;;;;;1.88;0.50;;;26.00;54.00;;;;;;5057622;28;20021;-87
2022/08/27 12:00:15;;;;;;;3.53;0.60;;;25.90;54.10;;;;;;5063707;28;20045;-92
2022/08/27 12:02:42;;;;;;;2.15;0.57;;;25.90;54.20;;;;;;5076629;28;20029;-91
2022/08/27 12:05:32;;;;;;;4.40;0.60;;;25.80;54.50;;;;;;5077997;28;20025;-90
2022/08/27 12:07:58;;;;;;;3.67;0.60;;;25.80;54.60;;;;;;5077209;28;20039;-92
2022/08/27 12:10:42;;;;;;;3.47;0.70;;;25.80;54.70;;;;;;5075898;28;20033;-93
2022/08/27 12:13:14;;;;;;;2.35;0.63;;;25.70;54.80;;;;;;5075261;28;20021;-89
2022/08/27 12:15:58;;;;;;;5.40;1.05;;;25.70;54.90;;;;;;5071068;28;20029;-90
2022/08/27 12:18:52;;;;;;;2.22;0.45;;;25.70;55.00;;;;;;5062773;28;20135;-93
2022/08/27 12:21:36;;;;;;;2.10;0.50;;;25.60;55.00;;;;;;5061617;28;20119;-91
2022/08/27 12:24:07;;;;;;;;;;;25.60;55.00;;;;;;5058448;28;20083;-93
2022/08/27 12:26:36;;;;;;;4.25;0.75;;;25.60;55.10;;;;;;5057569;28;19940;-94
2022/08/27 12:29:39;;;;;;;1.58;0.40;;;25.60;55.20;;;;;;5061607;28;20025;-94
2022/08/27 12:32:25;;;;;;;2.85;0.65;;;25.60;55.20;;;;;;5066602;28;20036;-94
2022/08/27 12:35:01;;;;;;;2.00;0.60;;;25.60;55.20;;;;;;5065864;28;20033;-95
2022/08/27 12:37:31;;;;;;;2.10;0.40;;;25.70;55.30;;;;;;5063321;28;20024;-94
2022/08/27 12:40:00;;;;;;;3.28;0.50;;;25.70;55.20;;;;;;5064525;28;20073;-92
2022/08/27 12:42:26;;;;;;;2.67;0.50;;;25.70;55.10;;;;;;5068625;28;20128;-87
2022/08/27 12:44:56;;;;;;;2.63;0.50;;;25.70;54.90;;;;;;5028838;28;20040;-93
2022/08/27 12:47:22;;;;;;;3.53;0.52;;;25.70;54.80;;;;;;5063047;28;20047;-93
2022/08/27 12:49:58;;;;;;;2.42;0.57;;;25.80;54.70;;;;;;5069558;28;20063;-93
2022/08/27 12:52:48;;;;;;;3.33;0.45;;;25.80;54.60;;;;;;5064242;28;20036;-94
2022/08/27 12:55:53;;;;;;;2.47;0.35;;;25.90;54.40;;;;;;5058471;28;20083;-94
2022/08/27 12:58:53;;;;;;;2.28;0.55;;;26.00;54.40;;;;;;5056098;28;20065;-88
2022/08/27 13:01:19;;;;;;;2.45;0.40;;;25.90;54.40;;;;;;5039947;28;20037;-91
2022/08/27 13:03:52;;;;;;;4.30;0.70;;;25.90;54.50;;;;;;5058452;28;20021;-93
2022/08/27 13:06:28;;;;;;;4.72;0.52;;;25.90;54.30;;;;;;5060803;28;20043;-92
2022/08/27 13:08:58;;;;;;;3.20;0.55;;;26.00;54.30;;;;;;5058079;28;20029;-93
2022/08/27 13:11:32;;;;;;;3.95;0.60;;;25.90;54.10;;;;;;5057195;28;20044;-91
2022/08/27 13:14:09;;;;;;;3.47;0.60;;;26.00;54.10;;;;;;5055222;28;20508;-93